createdAt,value
2023-03-07T00:01:09.724Z,1.60
2023-03-07T00:03:37.168Z,1.70
2023-03-07T00:06:10.067Z,0.82
2023-03-07T00:08:37.881Z,1.50
2023-03-07T00:11:07.846Z,1.63
2023-03-07T00:13:37.447Z,1.38
2023-03-07T00:16:10.705Z,1.77
2023-03-07T00:18:37.888Z,1.48
2023-03-07T00:21:07.753Z,1.52
2023-03-07T00:23:37.120Z,1.75
2023-03-07T00:26:05.639Z,1.45
2023-03-07T00:28:32.908Z,1.50
2023-03-07T00:31:01.784Z,1.17
2023-03-07T00:33:29.106Z,1.33
2023-03-07T00:36:01.323Z,1.40
2023-03-07T00:38:30.843Z,1.35
2023-03-07T00:41:12.979Z,1.63
2023-03-07T00:43:40.612Z,1.40
2023-03-07T00:46:08.414Z,1.40
2023-03-07T00:48:37.709Z,1.50
2023-03-07T00:51:06.614Z,1.40
2023-03-07T00:53:34.786Z,1.70
2023-03-07T00:56:06.988Z,1.70
2023-03-07T00:58:36.576Z,1.77
2023-03-07T01:01:06.505Z,1.45
2023-03-07T01:03:34.935Z,1.92
2023-03-07T01:06:12.016Z,1.60
2023-03-07T01:08:39.247Z,1.48
2023-03-07T01:11:07.413Z,1.40
2023-03-07T01:13:36.063Z,1.65
2023-03-07T01:16:15.110Z,1.52
2023-03-07T01:18:43.328Z,1.50
2023-03-07T01:21:16.965Z,1.70
2023-03-07T01:23:44.166Z,1.42
2023-03-07T01:26:16.756Z,1.40
2023-03-07T01:28:44.287Z,1.73
2023-03-07T01:31:12.464Z,1.27
2023-03-07T01:33:39.813Z,1.52
2023-03-07T01:36:31.234Z,1.65
2023-03-07T01:39:06.828Z,1.48
2023-03-07T01:41:36.468Z,1.65
2023-03-07T01:44:08.065Z,1.60
2023-03-07T01:46:45.901Z,1.35
2023-03-07T01:49:25.850Z,1.20
2023-03-07T01:52:00.254Z,1.70
2023-03-07T01:54:28.246Z,1.42
2023-03-07T01:56:55.778Z,1.23
2023-03-07T01:59:31.405Z,1.27
2023-03-07T02:02:03.538Z,1.50
2023-03-07T02:04:38.184Z,1.05
2023-03-07T02:07:06.724Z,1.60
2023-03-07T02:09:35.589Z,1.67
2023-03-07T02:12:03.245Z,1.42
2023-03-07T02:14:30.446Z,1.75
2023-03-07T02:16:58.717Z,1.50
2023-03-07T02:19:47.528Z,1.40
2023-03-07T02:22:17.891Z,1.65
2023-03-07T02:25:03.005Z,1.38
2023-03-07T02:27:33.825Z,1.50
2023-03-07T02:30:01.029Z,1.40
2023-03-07T02:32:28.351Z,1.45
2023-03-07T02:34:55.839Z,1.45
2023-03-07T02:37:27.881Z,1.25
2023-03-07T02:39:56.702Z,1.55
2023-03-07T02:42:28.073Z,1.48
2023-03-07T02:44:58.354Z,1.58
2023-03-07T02:47:26.095Z,1.30
2023-03-07T02:49:53.523Z,1.50
2023-03-07T02:52:21.969Z,0.90
2023-03-07T02:54:49.253Z,1.40
2023-03-07T02:57:16.474Z,1.42
2023-03-07T02:59:43.722Z,1.30
2023-03-07T03:02:10.924Z,1.35
2023-03-07T03:04:38.123Z,1.35
2023-03-07T03:07:05.676Z,1.42
2023-03-07T03:09:33.100Z,1.30
2023-03-07T03:12:00.492Z,1.50
2023-03-07T03:14:27.771Z,1.27
2023-03-07T03:16:55.310Z,1.40
2023-03-07T03:19:22.570Z,1.50
2023-03-07T03:21:50.060Z,1.58
2023-03-07T03:24:17.249Z,1.20
2023-03-07T03:26:44.366Z,1.70
2023-03-07T03:29:11.597Z,1.50
2023-03-07T03:31:38.819Z,1.35
2023-03-07T03:34:06.068Z,1.60
2023-03-07T03:36:33.548Z,1.50
2023-03-07T03:39:00.860Z,1.20
2023-03-07T03:41:28.077Z,1.88
2023-03-07T03:43:55.387Z,1.70
2023-03-07T03:46:22.584Z,1.52
2023-03-07T03:48:54.050Z,1.55
2023-03-07T03:51:22.367Z,1.45
2023-03-07T03:53:50.354Z,1.23
2023-03-07T03:56:22.893Z,1.52
2023-03-07T03:58:55.585Z,1.63
2023-03-07T04:01:25.125Z,1.70
2023-03-07T04:03:53.592Z,1.60
2023-03-07T04:06:24.092Z,1.70
2023-03-07T04:08:52.825Z,1.35
2023-03-07T04:11:21.458Z,1.70
2023-03-07T04:13:48.982Z,1.92
2023-03-07T04:16:17.133Z,1.42
2023-03-07T04:18:44.812Z,2.03
2023-03-07T04:21:13.190Z,1.63
2023-03-07T04:23:40.484Z,1.25
2023-03-07T04:26:09.225Z,1.35
2023-03-07T04:28:45.136Z,1.77
2023-03-07T04:31:14.612Z,1.73
2023-03-07T04:33:42.809Z,1.77
2023-03-07T04:36:10.639Z,1.48
2023-03-07T04:38:39.318Z,1.55
2023-03-07T04:41:12.972Z,2.00
2023-03-07T04:43:40.295Z,1.73
2023-03-07T04:46:09.043Z,1.65
2023-03-07T04:48:36.591Z,1.60
2023-03-07T04:51:04.170Z,2.40
2023-03-07T04:53:34.090Z,1.63
2023-03-07T04:56:03.413Z,2.00
2023-03-07T04:58:31.750Z,1.90
2023-03-07T05:01:00.403Z,2.38
2023-03-07T05:03:28.841Z,2.20
2023-03-07T05:05:56.254Z,2.30
2023-03-07T05:08:23.492Z,1.65
2023-03-07T05:10:50.833Z,1.95
2023-03-07T05:13:18.039Z,1.90
2023-03-07T05:15:49.749Z,2.22
2023-03-07T05:18:17.195Z,2.20
2023-03-07T05:20:44.438Z,2.10
2023-03-07T05:23:11.650Z,2.28
2023-03-07T05:25:38.897Z,1.77
2023-03-07T05:28:06.115Z,2.08
2023-03-07T05:30:33.213Z,1.60
2023-03-07T05:33:00.504Z,1.98
2023-03-07T05:35:27.937Z,2.00
2023-03-07T05:37:55.129Z,2.10
2023-03-07T05:40:22.320Z,2.25
2023-03-07T05:42:49.574Z,1.90
2023-03-07T05:45:16.705Z,1.98
2023-03-07T05:47:44.293Z,2.20
2023-03-07T05:50:12.082Z,2.08
2023-03-07T05:52:40.173Z,1.98
2023-03-07T05:55:08.674Z,2.20
2023-03-07T05:57:36.046Z,2.20
2023-03-07T06:00:06.373Z,2.10
2023-03-07T06:02:34.004Z,2.40
2023-03-07T06:05:01.226Z,2.20
2023-03-07T06:07:28.383Z,2.40
2023-03-07T06:09:55.601Z,2.30
2023-03-07T06:12:22.715Z,2.08
2023-03-07T06:14:49.923Z,2.60
2023-03-07T06:17:17.134Z,2.47
2023-03-07T06:19:44.167Z,2.60
2023-03-07T06:22:11.287Z,2.10
2023-03-07T06:24:38.582Z,2.22
2023-03-07T06:27:06.048Z,2.55
2023-03-07T06:29:33.273Z,2.58
2023-03-07T06:32:00.606Z,2.47
2023-03-07T06:34:28.052Z,2.33
2023-03-07T06:36:55.405Z,2.60
2023-03-07T06:39:22.717Z,2.20
2023-03-07T06:41:50.682Z,2.47
2023-03-07T06:44:18.493Z,2.58
2023-03-07T06:46:46.600Z,1.92
2023-03-07T06:49:14.116Z,2.45
2023-03-07T06:51:41.234Z,2.63
2023-03-07T06:54:08.549Z,2.85
2023-03-07T06:56:36.419Z,3.20
2023-03-07T06:59:03.901Z,2.60
2023-03-07T07:01:31.309Z,2.88
2023-03-07T07:03:58.544Z,2.70
2023-03-07T07:06:25.678Z,2.60
2023-03-07T07:08:57.640Z,2.50
2023-03-07T07:11:25.553Z,2.30
2023-03-07T07:13:52.745Z,2.50
2023-03-07T07:16:20.034Z,2.47
2023-03-07T07:18:47.494Z,2.42
2023-03-07T07:21:14.636Z,2.55
2023-03-07T07:23:41.787Z,2.10
2023-03-07T07:26:08.927Z,2.15
2023-03-07T07:28:36.157Z,2.20
2023-03-07T07:31:04.302Z,2.30
2023-03-07T07:33:32.057Z,2.65
2023-03-07T07:35:59.362Z,2.58
2023-03-07T07:38:26.673Z,2.33
2023-03-07T07:40:53.754Z,2.00
2023-03-07T07:43:20.889Z,2.60
2023-03-07T07:45:48.230Z,2.63
2023-03-07T07:48:15.622Z,2.25
2023-03-07T07:50:42.718Z,2.58
2023-03-07T07:53:10.011Z,2.38
2023-03-07T07:55:37.137Z,2.40
2023-03-07T07:58:04.690Z,2.35
2023-03-07T08:00:32.543Z,2.38
2023-03-07T08:03:00.360Z,2.40
2023-03-07T08:05:27.594Z,2.80
2023-03-07T08:07:54.665Z,2.38
2023-03-07T08:10:22.096Z,2.53
2023-03-07T08:12:53.111Z,2.58
2023-03-07T08:15:24.194Z,2.40
2023-03-07T08:17:51.574Z,2.10
2023-03-07T08:20:22.532Z,2.40
2023-03-07T08:22:50.989Z,2.58
2023-03-07T08:25:24.229Z,2.30
2023-03-07T08:27:55.256Z,2.13
2023-03-07T08:30:24.019Z,2.33
2023-03-07T08:32:55.177Z,1.92
2023-03-07T08:35:24.509Z,2.10
2023-03-07T08:37:56.074Z,1.80
2023-03-07T08:40:25.090Z,1.70
2023-03-07T08:42:55.302Z,2.03
2023-03-07T08:45:25.453Z,1.95
2023-03-07T08:47:54.066Z,1.95
2023-03-07T08:50:22.717Z,1.88
2023-03-07T08:52:49.940Z,1.65
2023-03-07T08:55:17.357Z,2.05
2023-03-07T08:57:47.572Z,1.65
2023-03-07T09:00:15.352Z,1.90
2023-03-07T09:02:42.429Z,1.52
2023-03-07T09:05:10.364Z,2.15
2023-03-07T09:07:37.516Z,2.30
2023-03-07T09:10:06.073Z,1.27
2023-03-07T09:12:36.323Z,2.20
2023-03-07T09:15:03.789Z,1.73
2023-03-07T09:17:30.954Z,1.98
2023-03-07T09:19:57.985Z,1.73
2023-03-07T09:22:25.144Z,1.70
2023-03-07T09:24:52.217Z,1.50
2023-03-07T09:27:19.598Z,2.05
2023-03-07T09:29:47.894Z,1.67
2023-03-07T09:32:15.378Z,1.67
2023-03-07T09:34:42.828Z,1.27
2023-03-07T09:37:10.946Z,1.50
2023-03-07T09:39:38.042Z,1.40
2023-03-07T09:42:30.482Z,1.50
2023-03-07T09:45:03.820Z,1.27
2023-03-07T09:48:07.508Z,1.55
2023-03-07T09:50:53.211Z,1.58
2023-03-07T09:53:31.202Z,1.88
2023-03-07T09:56:01.625Z,1.65
2023-03-07T09:58:28.710Z,1.70
2023-03-07T10:01:01.763Z,1.52
2023-03-07T10:03:52.224Z,1.27
2023-03-07T10:06:39.556Z,1.45
2023-03-07T10:09:14.552Z,1.17
2023-03-07T10:11:53.702Z,1.30
2023-03-07T10:14:35.958Z,0.95
2023-03-07T10:17:06.133Z,1.25
2023-03-07T10:20:00.868Z,1.10
2023-03-07T10:22:46.623Z,0.73
2023-03-07T10:25:19.532Z,1.70
2023-03-07T10:27:49.977Z,1.23
2023-03-07T10:30:21.214Z,1.73
2023-03-07T10:33:01.389Z,0.80
2023-03-07T10:35:59.169Z,1.55
2023-03-07T10:38:37.985Z,0.93
2023-03-07T10:41:17.559Z,1.42
2023-03-07T10:43:46.203Z,1.05
2023-03-07T10:46:26.963Z,0.80
2023-03-07T10:49:02.299Z,0.80
2023-03-07T10:51:51.999Z,0.98
2023-03-07T10:54:43.369Z,0.90
2023-03-07T10:57:18.506Z,1.02
2023-03-07T10:59:50.573Z,1.00
2023-03-07T11:02:44.957Z,0.98
2023-03-07T11:05:34.026Z,1.30
2023-03-07T11:08:20.075Z,1.25
2023-03-07T11:10:47.284Z,0.90
2023-03-07T11:13:19.873Z,1.15
2023-03-07T11:15:47.662Z,0.75
2023-03-07T11:18:47.946Z,1.10
2023-03-07T11:21:35.565Z,1.05
2023-03-07T11:24:20.452Z,1.00
2023-03-07T11:26:53.325Z,1.30
2023-03-07T11:29:20.485Z,0.82
2023-03-07T11:32:24.580Z,1.23
2023-03-07T11:35:03.693Z,0.80
2023-03-07T11:38:14.842Z,0.90
2023-03-07T11:41:08.025Z,1.23
2023-03-07T11:43:52.564Z,0.93
2023-03-07T11:46:43.478Z,0.82
2023-03-07T11:49:48.581Z,0.47
2023-03-07T11:52:16.060Z,0.90
2023-03-07T11:55:00.989Z,0.70
2023-03-07T11:57:31.132Z,0.60
2023-03-07T11:59:58.118Z,0.85
2023-03-07T12:02:28.002Z,1.05
2023-03-07T12:05:20.032Z,0.80
2023-03-07T12:08:08.580Z,0.70
2023-03-07T12:11:02.368Z,0.60
2023-03-07T12:13:54.738Z,0.82
2023-03-07T12:16:34.453Z,0.82
2023-03-07T12:19:16.220Z,0.50
2023-03-07T12:22:01.507Z,0.60
2023-03-07T12:24:36.020Z,0.82
2023-03-07T12:27:32.970Z,0.52
2023-03-07T12:30:07.341Z,0.60
2023-03-07T12:32:36.638Z,0.35
2023-03-07T12:35:25.377Z,0.60
2023-03-07T12:38:04.683Z,0.70
2023-03-07T12:40:41.298Z,0.63
2023-03-07T12:43:29.800Z,0.43
2023-03-07T12:46:01.157Z,0.45
2023-03-07T12:49:00.765Z,0.45
2023-03-07T12:51:37.435Z,0.50
2023-03-07T12:54:13.508Z,0.38
2023-03-07T12:56:58.826Z,0.40
2023-03-07T12:59:28.190Z,0.40
2023-03-07T13:02:16.919Z,0.40
2023-03-07T13:04:44.181Z,0.70
2023-03-07T13:07:27.673Z,0.60
2023-03-07T13:09:58.017Z,0.50
2023-03-07T13:12:28.303Z,0.43
2023-03-07T13:14:57.363Z,0.57
2023-03-07T13:17:27.476Z,0.50
2023-03-07T13:19:56.379Z,0.52
2023-03-07T13:22:23.388Z,0.95
2023-03-07T13:24:51.435Z,0.70
2023-03-07T13:27:52.569Z,0.70
2023-03-07T13:30:22.059Z,0.50
2023-03-07T13:32:49.357Z,0.70
2023-03-07T13:35:35.865Z,0.50
2023-03-07T13:38:15.411Z,0.70
2023-03-07T13:40:46.838Z,0.65
2023-03-07T13:43:19.900Z,0.50
2023-03-07T13:45:53.013Z,0.73
2023-03-07T13:48:20.191Z,0.95
2023-03-07T13:50:53.211Z,0.20
2023-03-07T13:53:32.024Z,0.50
2023-03-07T13:56:17.247Z,0.32
2023-03-07T13:59:11.832Z,0.55
2023-03-07T14:01:49.580Z,0.57
2023-03-07T14:04:50.109Z,0.10
2023-03-07T14:07:36.261Z,0.30
2023-03-07T14:10:21.568Z,0.57
2023-03-07T14:13:10.945Z,0.60
2023-03-07T14:16:06.820Z,0.30
2023-03-07T14:18:43.765Z,0.10
2023-03-07T14:21:28.707Z,0.50
2023-03-07T14:24:33.746Z,0.40
2023-03-07T14:27:05.497Z,0.73
2023-03-07T14:29:32.690Z,0.40
2023-03-07T14:32:01.226Z,0.50
2023-03-07T14:34:36.112Z,0.50
2023-03-07T14:37:26.546Z,0.45
2023-03-07T14:39:59.571Z,0.35
2023-03-07T14:42:45.628Z,0.47
2023-03-07T14:45:41.029Z,0.30
2023-03-07T14:48:32.143Z,0.40
2023-03-07T14:51:07.516Z,0.70
2023-03-07T14:53:35.376Z,0.40
2023-03-07T14:56:07.948Z,0.45
2023-03-07T14:58:45.697Z,0.20
2023-03-07T15:01:19.801Z,0.63
2023-03-07T15:03:49.702Z,0.30
2023-03-07T15:06:20.769Z,0.32
2023-03-07T15:08:49.881Z,0.38
2023-03-07T15:11:35.432Z,0.22
2023-03-07T15:14:08.126Z,0.38
2023-03-07T15:16:50.780Z,0.73
2023-03-07T15:19:27.339Z,0.35
2023-03-07T15:21:57.858Z,0.32
2023-03-07T15:24:32.594Z,0.57
2023-03-07T15:27:00.938Z,0.80
2023-03-07T15:29:33.265Z,0.70
2023-03-07T15:32:32.331Z,0.75
2023-03-07T15:35:09.731Z,0.70
2023-03-07T15:38:06.805Z,0.35
2023-03-07T15:40:37.599Z,0.32
2023-03-07T15:43:04.937Z,0.50
2023-03-07T15:45:36.072Z,0.68
2023-03-07T15:48:44.579Z,0.50
2023-03-07T15:51:17.226Z,0.50
2023-03-07T15:53:46.612Z,0.60
2023-03-07T15:56:36.346Z,0.60
2023-03-07T15:59:28.273Z,0.63
2023-03-07T16:01:55.397Z,0.40
2023-03-07T16:04:31.287Z,0.73
2023-03-07T16:06:59.468Z,1.30
2023-03-07T16:09:26.667Z,0.63
2023-03-07T16:11:54.249Z,0.55
2023-03-07T16:14:27.874Z,0.70
2023-03-07T16:17:21.475Z,0.60
2023-03-07T16:19:48.531Z,0.60
2023-03-07T16:22:18.514Z,0.10
2023-03-07T16:24:45.734Z,0.60
2023-03-07T16:27:18.221Z,0.30
2023-03-07T16:29:46.539Z,0.32
2023-03-07T16:32:16.664Z,0.35
2023-03-07T16:34:44.559Z,0.50
2023-03-07T16:37:13.639Z,0.45
2023-03-07T16:39:44.320Z,0.82
2023-03-07T16:42:29.036Z,0.82
2023-03-07T16:44:57.261Z,0.20
2023-03-07T16:47:24.795Z,0.68
2023-03-07T16:49:51.916Z,0.77
2023-03-07T16:52:19.086Z,0.82
2023-03-07T16:54:46.349Z,0.40
2023-03-07T16:57:16.692Z,0.65
2023-03-07T16:59:47.326Z,0.50
2023-03-07T17:04:46.375Z,0.47
2023-03-07T17:07:18.737Z,0.20
2023-03-07T17:09:46.289Z,0.98
2023-03-07T17:12:13.821Z,0.30
2023-03-07T17:14:42.727Z,0.90
2023-03-07T17:17:22.368Z,0.73
2023-03-07T17:19:49.547Z,1.83
2023-03-07T17:22:18.252Z,0.77
2023-03-07T17:24:46.377Z,0.37
2023-03-07T17:27:13.415Z,0.47
2023-03-07T17:29:48.301Z,0.40
2023-03-07T17:32:15.756Z,0.40
2023-03-07T17:34:43.308Z,1.20
2023-03-07T17:37:12.512Z,0.73
2023-03-07T17:39:39.876Z,0.68
2023-03-07T17:42:07.299Z,0.10
2023-03-07T17:44:34.631Z,0.80
2023-03-07T17:47:01.873Z,0.55
2023-03-07T17:49:37.580Z,0.60
2023-03-07T17:52:07.308Z,0.63
2023-03-07T17:54:34.722Z,0.40
2023-03-07T17:57:02.281Z,0.52
2023-03-07T17:59:31.720Z,0.98
2023-03-07T18:01:58.932Z,0.65
2023-03-07T18:04:28.709Z,1.25
2023-03-07T18:06:55.938Z,0.70
2023-03-07T18:09:23.860Z,0.43
2023-03-07T18:11:51.089Z,0.17
2023-03-07T18:14:18.465Z,0.57
2023-03-07T18:16:45.857Z,0.47
2023-03-07T18:19:25.300Z,0.60
2023-03-07T18:21:53.519Z,1.33
2023-03-07T18:24:29.142Z,0.30
2023-03-07T18:26:59.427Z,0.50
2023-03-07T18:29:28.548Z,0.60
2023-03-07T18:31:56.089Z,0.57
2023-03-07T18:34:24.926Z,0.30
2023-03-07T18:36:54.442Z,0.85
2023-03-07T18:39:22.939Z,0.73
2023-03-07T18:41:51.203Z,1.40
2023-03-07T18:44:18.870Z,0.80
2023-03-07T18:46:47.092Z,0.45
2023-03-07T18:49:14.551Z,0.65
2023-03-07T18:51:44.303Z,0.75
2023-03-07T18:54:11.483Z,0.40
2023-03-07T18:56:38.870Z,1.60
2023-03-07T18:59:06.097Z,0.80
2023-03-07T19:01:37.512Z,0.95
2023-03-07T19:04:05.501Z,0.90
2023-03-07T19:06:37.266Z,1.35
2023-03-07T19:09:04.540Z,1.50
2023-03-07T19:11:32.136Z,0.43
2023-03-07T19:13:59.722Z,0.35
2023-03-07T19:16:29.932Z,1.23
2023-03-07T19:18:57.373Z,0.40
2023-03-07T19:21:27.262Z,3.08
2023-03-07T19:23:56.345Z,1.25
2023-03-07T19:26:24.708Z,2.58
2023-03-07T19:28:54.042Z,0.55
2023-03-07T19:31:30.086Z,3.15
2023-03-07T19:33:58.370Z,1.08
2023-03-07T19:36:28.252Z,2.53
2023-03-07T19:38:59.478Z,1.13
2023-03-07T19:41:28.091Z,1.13
2023-03-07T19:43:59.621Z,1.58
2023-03-07T19:46:27.728Z,1.10
2023-03-07T19:48:54.889Z,1.65
2023-03-07T19:51:24.636Z,1.95
2023-03-07T19:53:52.347Z,1.10
2023-03-07T19:56:25.275Z,1.60
2023-03-07T19:58:52.454Z,2.22
2023-03-07T20:01:21.090Z,2.38
2023-03-07T20:03:48.885Z,2.10
2023-03-07T20:06:20.511Z,1.67
2023-03-07T20:08:49.253Z,0.95
2023-03-07T20:11:24.379Z,1.85
2023-03-07T20:13:53.184Z,1.63
2023-03-07T20:16:20.720Z,2.15
2023-03-07T20:18:52.118Z,2.08
2023-03-07T20:21:20.685Z,1.63
2023-03-07T20:23:48.835Z,0.77
2023-03-07T20:26:25.236Z,2.20
2023-03-07T20:28:53.786Z,0.95
2023-03-07T20:31:22.349Z,1.10
2023-03-07T20:33:50.340Z,1.80
2023-03-07T20:36:24.091Z,0.77
2023-03-07T20:38:53.931Z,1.40
2023-03-07T20:41:25.379Z,1.37
2023-03-07T20:43:53.337Z,1.80
2023-03-07T20:46:22.270Z,0.70
2023-03-07T20:48:50.480Z,2.30
2023-03-07T20:51:20.930Z,1.77
2023-03-07T20:53:53.813Z,1.52
2023-03-07T20:56:22.816Z,1.58
2023-03-07T20:58:50.354Z,1.92
2023-03-07T21:01:18.978Z,2.35
2023-03-07T21:03:46.300Z,2.88
2023-03-07T21:06:13.420Z,2.55
2023-03-07T21:08:40.553Z,0.77
2023-03-07T21:11:16.925Z,3.30
2023-03-07T21:13:46.488Z,2.75
2023-03-07T21:16:18.262Z,1.73
2023-03-07T21:18:45.952Z,2.17
2023-03-07T21:21:18.019Z,3.08
2023-03-07T21:23:45.886Z,1.25
2023-03-07T21:26:15.643Z,2.60
2023-03-07T21:28:43.420Z,1.20
2023-03-07T21:31:13.488Z,1.85
2023-03-07T21:33:43.064Z,2.05
2023-03-07T21:36:13.925Z,1.38
2023-03-07T21:38:41.923Z,2.00
2023-03-07T21:41:09.464Z,1.42
2023-03-07T21:43:36.683Z,1.55
2023-03-07T21:46:06.055Z,2.38
2023-03-07T21:48:34.300Z,1.80
2023-03-07T21:51:02.457Z,1.80
2023-03-07T21:53:30.656Z,2.55
2023-03-07T21:56:02.513Z,0.80
2023-03-07T21:58:31.014Z,1.60
2023-03-07T22:00:59.074Z,1.40
2023-03-07T22:03:27.513Z,1.17
2023-03-07T22:05:56.287Z,2.58
2023-03-07T22:08:24.389Z,2.40
2023-03-07T22:11:00.536Z,1.02
2023-03-07T22:13:30.279Z,2.67
2023-03-07T22:15:58.706Z,1.80
2023-03-07T22:18:27.199Z,2.80
2023-03-07T22:20:55.575Z,1.08
2023-03-07T22:23:24.262Z,3.33
2023-03-07T22:25:51.309Z,1.38
2023-03-07T22:28:19.675Z,1.92
2023-03-07T22:30:49.714Z,1.88
2023-03-07T22:33:17.319Z,0.65
2023-03-07T22:35:44.614Z,2.97
2023-03-07T22:38:12.192Z,2.03
2023-03-07T22:40:39.696Z,1.20
2023-03-07T22:43:06.936Z,2.20
2023-03-07T22:45:34.088Z,1.30
2023-03-07T22:48:01.351Z,1.60
2023-03-07T22:50:29.070Z,1.25
2023-03-07T22:52:56.284Z,1.10
2023-03-07T22:55:23.422Z,1.77
2023-03-07T22:57:50.570Z,1.20
2023-03-07T23:00:17.987Z,2.10
2023-03-07T23:02:45.247Z,3.55
2023-03-07T23:05:12.367Z,1.17
2023-03-07T23:07:40.250Z,1.45
2023-03-07T23:10:07.526Z,0.73
2023-03-07T23:12:34.706Z,3.08
2023-03-07T23:15:01.821Z,2.10
2023-03-07T23:17:28.917Z,2.33
2023-03-07T23:19:56.067Z,2.30
2023-03-07T23:22:23.261Z,0.98
2023-03-07T23:24:50.362Z,3.05
2023-03-07T23:27:17.563Z,3.10
2023-03-07T23:29:44.744Z,2.25
2023-03-07T23:32:11.832Z,0.95
2023-03-07T23:34:39.055Z,1.40
2023-03-07T23:37:06.427Z,2.22
2023-03-07T23:39:33.629Z,2.13
2023-03-07T23:42:00.734Z,0.88
2023-03-07T23:44:27.984Z,1.38
2023-03-07T23:46:55.014Z,2.08
2023-03-07T23:49:22.153Z,3.15
2023-03-07T23:51:49.288Z,2.03
2023-03-07T23:54:16.351Z,1.52
2023-03-07T23:56:43.509Z,1.40
2023-03-07T23:59:10.688Z,1.95
